sensor_id;sensor_type;location;lat;lon;timestamp;P1;durP1;ratioP1;P2;durP2;ratioP2
68353;SDS011;55274;43.060;25.618;2023-06-24T00:02:19;9.65;;;6.40;;
68353;SDS011;55274;43.060;25.618;2023-06-24T00:04:49;12.13;;;6.20;;
68353;SDS011;55274;43.060;25.618;2023-06-24T00:07:15;12.98;;;8.23;;
68353;SDS011;55274;43.060;25.618;2023-06-24T00:09:41;15.25;;;6.82;;
68353;SDS011;55274;43.060;25.618;2023-06-24T00:12:07;10.95;;;6.90;;
68353;SDS011;55274;43.060;25.618;2023-06-24T00:14:33;10.35;;;6.07;;
68353;SDS011;55274;43.060;25.618;2023-06-24T00:17:00;8.25;;;5.75;;
68353;SDS011;55274;43.060;25.618;2023-06-24T00:19:26;17.60;;;6.90;;
68353;SDS011;55274;43.060;25.618;2023-06-24T00:21:52;17.98;;;7.15;;
68353;SDS011;55274;43.060;25.618;2023-06-24T00:24:20;15.50;;;6.78;;
68353;SDS011;55274;43.060;25.618;2023-06-24T00:26:53;14.63;;;6.30;;
68353;SDS011;55274;43.060;25.618;2023-06-24T00:29:20;9.35;;;6.10;;
68353;SDS011;55274;43.060;25.618;2023-06-24T00:31:45;12.32;;;5.75;;
68353;SDS011;55274;43.060;25.618;2023-06-24T00:34:11;12.30;;;6.80;;
68353;SDS011;55274;43.060;25.618;2023-06-24T00:36:37;46.65;;;8.00;;
68353;SDS011;55274;43.060;25.618;2023-06-24T00:39:04;16.95;;;6.93;;
68353;SDS011;55274;43.060;25.618;2023-06-24T00:41:34;14.02;;;6.50;;
68353;SDS011;55274;43.060;25.618;2023-06-24T00:44:00;13.68;;;5.97;;
68353;SDS011;55274;43.060;25.618;2023-06-24T00:46:26;8.68;;;5.68;;
68353;SDS011;55274;43.060;25.618;2023-06-24T00:48:54;10.15;;;6.15;;
68353;SDS011;55274;43.060;25.618;2023-06-24T00:51:20;34.88;;;6.88;;
68353;SDS011;55274;43.060;25.618;2023-06-24T00:53:54;41.15;;;8.75;;
68353;SDS011;55274;43.060;25.618;2023-06-24T00:56:21;36.97;;;7.40;;
68353;SDS011;55274;43.060;25.618;2023-06-24T00:58:50;14.20;;;6.07;;
68353;SDS011;55274;43.060;25.618;2023-06-24T01:01:17;18.48;;;7.15;;
68353;SDS011;55274;43.060;25.618;2023-06-24T01:03:44;19.80;;;6.82;;
68353;SDS011;55274;43.060;25.618;2023-06-24T01:06:13;13.68;;;5.82;;
68353;SDS011;55274;43.060;25.618;2023-06-24T01:08:40;23.23;;;7.35;;
68353;SDS011;55274;43.060;25.618;2023-06-24T01:11:05;13.15;;;6.45;;
68353;SDS011;55274;43.060;25.618;2023-06-24T01:13:31;11.57;;;5.95;;
68353;SDS011;55274;43.060;25.618;2023-06-24T01:15:58;13.52;;;5.78;;
68353;SDS011;55274;43.060;25.618;2023-06-24T01:18:50;9.52;;;6.05;;
68353;SDS011;55274;43.060;25.618;2023-06-24T01:26:57;11.18;;;6.50;;
68353;SDS011;55274;43.060;25.618;2023-06-24T01:29:44;9.75;;;6.10;;
68353;SDS011;55274;43.060;25.618;2023-06-24T01:35:34;28.38;;;6.35;;
68353;SDS011;55274;43.060;25.618;2023-06-24T01:38:03;11.10;;;6.65;;
68353;SDS011;55274;43.060;25.618;2023-06-24T01:40:38;15.43;;;7.03;;
68353;SDS011;55274;43.060;25.618;2023-06-24T01:43:09;10.38;;;6.38;;
68353;SDS011;55274;43.060;25.618;2023-06-24T01:45:43;9.82;;;5.90;;
68353;SDS011;55274;43.060;25.618;2023-06-24T01:48:15;12.18;;;5.93;;
68353;SDS011;55274;43.060;25.618;2023-06-24T01:50:45;9.55;;;5.97;;
68353;SDS011;55274;43.060;25.618;2023-06-24T01:53:34;13.15;;;6.80;;
68353;SDS011;55274;43.060;25.618;2023-06-24T01:56:04;10.05;;;6.05;;
68353;SDS011;55274;43.060;25.618;2023-06-24T01:58:32;13.75;;;6.07;;
68353;SDS011;55274;43.060;25.618;2023-06-24T02:01:01;9.50;;;5.70;;
68353;SDS011;55274;43.060;25.618;2023-06-24T02:03:28;11.70;;;6.32;;
68353;SDS011;55274;43.060;25.618;2023-06-24T02:05:56;12.15;;;5.65;;
68353;SDS011;55274;43.060;25.618;2023-06-24T02:08:23;9.70;;;5.82;;
68353;SDS011;55274;43.060;25.618;2023-06-24T02:10:50;12.90;;;6.40;;
68353;SDS011;55274;43.060;25.618;2023-06-24T02:13:17;14.23;;;6.63;;
68353;SDS011;55274;43.060;25.618;2023-06-24T02:15:44;31.33;;;7.13;;
68353;SDS011;55274;43.060;25.618;2023-06-24T02:18:12;10.90;;;5.80;;
68353;SDS011;55274;43.060;25.618;2023-06-24T02:20:40;22.15;;;6.57;;
68353;SDS011;55274;43.060;25.618;2023-06-24T02:23:09;21.05;;;6.40;;
68353;SDS011;55274;43.060;25.618;2023-06-24T02:25:36;13.98;;;6.00;;
68353;SDS011;55274;43.060;25.618;2023-06-24T02:28:06;19.85;;;6.32;;
68353;SDS011;55274;43.060;25.618;2023-06-24T02:30:37;13.25;;;6.90;;
68353;SDS011;55274;43.060;25.618;2023-06-24T02:35:30;24.88;;;6.47;;
68353;SDS011;55274;43.060;25.618;2023-06-24T02:37:55;17.02;;;7.22;;
68353;SDS011;55274;43.060;25.618;2023-06-24T02:40:21;15.02;;;6.50;;
68353;SDS011;55274;43.060;25.618;2023-06-24T02:42:47;14.00;;;6.90;;
68353;SDS011;55274;43.060;25.618;2023-06-24T02:45:13;16.95;;;7.60;;
68353;SDS011;55274;43.060;25.618;2023-06-24T02:47:40;14.15;;;6.95;;
68353;SDS011;55274;43.060;25.618;2023-06-24T02:50:09;21.42;;;7.57;;
68353;SDS011;55274;43.060;25.618;2023-06-24T02:52:36;9.77;;;6.03;;
68353;SDS011;55274;43.060;25.618;2023-06-24T02:55:02;11.13;;;6.28;;
68353;SDS011;55274;43.060;25.618;2023-06-24T02:57:29;12.35;;;6.45;;
68353;SDS011;55274;43.060;25.618;2023-06-24T02:59:55;11.35;;;6.13;;
68353;SDS011;55274;43.060;25.618;2023-06-24T03:02:21;15.02;;;6.35;;
68353;SDS011;55274;43.060;25.618;2023-06-24T03:04:48;10.98;;;6.28;;
68353;SDS011;55274;43.060;25.618;2023-06-24T03:07:16;13.25;;;6.07;;
68353;SDS011;55274;43.060;25.618;2023-06-24T03:09:45;23.98;;;7.82;;
68353;SDS011;55274;43.060;25.618;2023-06-24T03:12:11;16.75;;;8.20;;
68353;SDS011;55274;43.060;25.618;2023-06-24T03:14:37;27.35;;;9.07;;
68353;SDS011;55274;43.060;25.618;2023-06-24T03:17:03;19.10;;;7.55;;
68353;SDS011;55274;43.060;25.618;2023-06-24T03:19:29;10.23;;;5.80;;
68353;SDS011;55274;43.060;25.618;2023-06-24T03:21:55;18.30;;;6.70;;
68353;SDS011;55274;43.060;25.618;2023-06-24T03:24:20;14.98;;;6.95;;
68353;SDS011;55274;43.060;25.618;2023-06-24T03:26:46;68.40;;;8.98;;
68353;SDS011;55274;43.060;25.618;2023-06-24T03:29:12;77.95;;;9.57;;
68353;SDS011;55274;43.060;25.618;2023-06-24T03:31:38;37.72;;;7.88;;
68353;SDS011;55274;43.060;25.618;2023-06-24T03:34:09;16.73;;;6.18;;
68353;SDS011;55274;43.060;25.618;2023-06-24T03:36:35;14.40;;;6.15;;
68353;SDS011;55274;43.060;25.618;2023-06-24T03:39:03;43.05;;;8.90;;
68353;SDS011;55274;43.060;25.618;2023-06-24T03:41:29;15.38;;;6.72;;
68353;SDS011;55274;43.060;25.618;2023-06-24T03:43:55;11.27;;;6.30;;
68353;SDS011;55274;43.060;25.618;2023-06-24T03:46:21;39.00;;;8.05;;
68353;SDS011;55274;43.060;25.618;2023-06-24T03:48:47;11.27;;;6.47;;
68353;SDS011;55274;43.060;25.618;2023-06-24T03:51:14;11.35;;;5.78;;
68353;SDS011;55274;43.060;25.618;2023-06-24T03:53:40;26.90;;;6.88;;
68353;SDS011;55274;43.060;25.618;2023-06-24T03:56:06;8.45;;;5.38;;
68353;SDS011;55274;43.060;25.618;2023-06-24T03:58:32;9.80;;;5.30;;
68353;SDS011;55274;43.060;25.618;2023-06-24T04:01:01;13.85;;;5.43;;
68353;SDS011;55274;43.060;25.618;2023-06-24T04:03:27;28.27;;;6.30;;
68353;SDS011;55274;43.060;25.618;2023-06-24T04:05:54;25.60;;;5.70;;
68353;SDS011;55274;43.060;25.618;2023-06-24T04:08:20;14.50;;;5.18;;
68353;SDS011;55274;43.060;25.618;2023-06-24T04:10:47;8.93;;;4.32;;
68353;SDS011;55274;43.060;25.618;2023-06-24T04:13:13;6.90;;;4.10;;
68353;SDS011;55274;43.060;25.618;2023-06-24T04:15:38;10.10;;;4.90;;
68353;SDS011;55274;43.060;25.618;2023-06-24T04:18:04;17.10;;;5.25;;
68353;SDS011;55274;43.060;25.618;2023-06-24T04:20:30;7.10;;;4.40;;
68353;SDS011;55274;43.060;25.618;2023-06-24T04:22:58;6.95;;;4.40;;
68353;SDS011;55274;43.060;25.618;2023-06-24T04:25:25;6.40;;;4.03;;
68353;SDS011;55274;43.060;25.618;2023-06-24T04:27:50;8.07;;;4.60;;
68353;SDS011;55274;43.060;25.618;2023-06-24T04:30:16;7.05;;;4.18;;
68353;SDS011;55274;43.060;25.618;2023-06-24T04:32:42;6.75;;;4.70;;
68353;SDS011;55274;43.060;25.618;2023-06-24T04:35:08;7.88;;;4.50;;
68353;SDS011;55274;43.060;25.618;2023-06-24T04:37:34;13.98;;;5.88;;
68353;SDS011;55274;43.060;25.618;2023-06-24T04:40:00;43.53;;;9.65;;
68353;SDS011;55274;43.060;25.618;2023-06-24T04:42:25;11.32;;;6.00;;
68353;SDS011;55274;43.060;25.618;2023-06-24T04:44:51;22.45;;;6.60;;
68353;SDS011;55274;43.060;25.618;2023-06-24T04:47:17;16.45;;;6.30;;
68353;SDS011;55274;43.060;25.618;2023-06-24T04:49:43;28.08;;;7.07;;
68353;SDS011;55274;43.060;25.618;2023-06-24T04:52:10;18.67;;;6.65;;
68353;SDS011;55274;43.060;25.618;2023-06-24T04:54:36;11.70;;;5.88;;
68353;SDS011;55274;43.060;25.618;2023-06-24T04:57:02;9.75;;;5.13;;
68353;SDS011;55274;43.060;25.618;2023-06-24T04:59:31;9.98;;;5.30;;
68353;SDS011;55274;43.060;25.618;2023-06-24T05:01:57;10.77;;;5.82;;
68353;SDS011;55274;43.060;25.618;2023-06-24T05:04:23;11.68;;;5.07;;
68353;SDS011;55274;43.060;25.618;2023-06-24T05:06:48;12.23;;;5.38;;
68353;SDS011;55274;43.060;25.618;2023-06-24T05:09:14;8.75;;;4.60;;
68353;SDS011;55274;43.060;25.618;2023-06-24T05:11:40;13.52;;;5.80;;
68353;SDS011;55274;43.060;25.618;2023-06-24T05:14:06;19.77;;;6.53;;
68353;SDS011;55274;43.060;25.618;2023-06-24T05:16:32;17.95;;;6.65;;
68353;SDS011;55274;43.060;25.618;2023-06-24T05:18:58;36.58;;;8.93;;
68353;SDS011;55274;43.060;25.618;2023-06-24T05:21:23;47.72;;;17.83;;
68353;SDS011;55274;43.060;25.618;2023-06-24T05:23:49;8.57;;;4.53;;
68353;SDS011;55274;43.060;25.618;2023-06-24T05:26:15;7.38;;;5.13;;
68353;SDS011;55274;43.060;25.618;2023-06-24T05:28:41;13.90;;;5.60;;
68353;SDS011;55274;43.060;25.618;2023-06-24T05:31:06;21.67;;;7.60;;
68353;SDS011;55274;43.060;25.618;2023-06-24T05:33:32;16.98;;;7.25;;
68353;SDS011;55274;43.060;25.618;2023-06-24T05:35:58;9.93;;;5.10;;
68353;SDS011;55274;43.060;25.618;2023-06-24T05:38:24;8.85;;;4.60;;
68353;SDS011;55274;43.060;25.618;2023-06-24T05:40:49;6.88;;;4.60;;
68353;SDS011;55274;43.060;25.618;2023-06-24T05:43:15;9.13;;;4.50;;
68353;SDS011;55274;43.060;25.618;2023-06-24T05:45:41;8.50;;;4.93;;
68353;SDS011;55274;43.060;25.618;2023-06-24T05:48:07;7.10;;;4.82;;
68353;SDS011;55274;43.060;25.618;2023-06-24T05:50:32;8.07;;;4.82;;
68353;SDS011;55274;43.060;25.618;2023-06-24T05:52:58;6.57;;;4.68;;
68353;SDS011;55274;43.060;25.618;2023-06-24T05:55:24;7.47;;;4.88;;
68353;SDS011;55274;43.060;25.618;2023-06-24T05:57:49;12.63;;;4.80;;
68353;SDS011;55274;43.060;25.618;2023-06-24T06:00:17;7.25;;;5.22;;
68353;SDS011;55274;43.060;25.618;2023-06-24T06:02:43;21.08;;;6.10;;
68353;SDS011;55274;43.060;25.618;2023-06-24T06:05:09;6.75;;;4.88;;
68353;SDS011;55274;43.060;25.618;2023-06-24T06:07:35;8.77;;;4.78;;
68353;SDS011;55274;43.060;25.618;2023-06-24T06:10:04;8.07;;;4.68;;
68353;SDS011;55274;43.060;25.618;2023-06-24T06:12:30;7.57;;;4.50;;
68353;SDS011;55274;43.060;25.618;2023-06-24T06:14:56;7.10;;;4.72;;
68353;SDS011;55274;43.060;25.618;2023-06-24T06:17:23;7.82;;;4.50;;
68353;SDS011;55274;43.060;25.618;2023-06-24T06:19:49;16.60;;;5.18;;
68353;SDS011;55274;43.060;25.618;2023-06-24T06:22:15;11.77;;;5.45;;
68353;SDS011;55274;43.060;25.618;2023-06-24T06:24:41;6.05;;;4.75;;
68353;SDS011;55274;43.060;25.618;2023-06-24T06:27:10;8.02;;;5.25;;
68353;SDS011;55274;43.060;25.618;2023-06-24T06:29:36;9.32;;;5.30;;
68353;SDS011;55274;43.060;25.618;2023-06-24T06:32:02;9.38;;;4.90;;
68353;SDS011;55274;43.060;25.618;2023-06-24T06:34:28;6.40;;;4.47;;
68353;SDS011;55274;43.060;25.618;2023-06-24T06:36:54;9.20;;;4.15;;
68353;SDS011;55274;43.060;25.618;2023-06-24T06:39:20;6.03;;;4.55;;
68353;SDS011;55274;43.060;25.618;2023-06-24T06:41:45;5.60;;;4.53;;
68353;SDS011;55274;43.060;25.618;2023-06-24T06:44:11;7.38;;;4.55;;
68353;SDS011;55274;43.060;25.618;2023-06-24T06:46:37;7.88;;;4.70;;
68353;SDS011;55274;43.060;25.618;2023-06-24T06:49:03;6.40;;;4.82;;
68353;SDS011;55274;43.060;25.618;2023-06-24T06:51:28;8.27;;;4.43;;
68353;SDS011;55274;43.060;25.618;2023-06-24T06:53:54;6.32;;;4.45;;
68353;SDS011;55274;43.060;25.618;2023-06-24T06:56:22;8.48;;;4.75;;
68353;SDS011;55274;43.060;25.618;2023-06-24T06:58:49;6.43;;;5.15;;
68353;SDS011;55274;43.060;25.618;2023-06-24T07:01:15;6.13;;;4.30;;
68353;SDS011;55274;43.060;25.618;2023-06-24T07:03:42;6.75;;;4.47;;
68353;SDS011;55274;43.060;25.618;2023-06-24T07:06:08;6.90;;;5.13;;
68353;SDS011;55274;43.060;25.618;2023-06-24T07:08:34;11.25;;;4.85;;
68353;SDS011;55274;43.060;25.618;2023-06-24T07:11:01;5.95;;;4.18;;
68353;SDS011;55274;43.060;25.618;2023-06-24T07:13:29;5.85;;;4.53;;
68353;SDS011;55274;43.060;25.618;2023-06-24T07:15:55;5.93;;;4.63;;
68353;SDS011;55274;43.060;25.618;2023-06-24T07:18:21;8.85;;;4.97;;
68353;SDS011;55274;43.060;25.618;2023-06-24T07:20:47;5.40;;;4.75;;
68353;SDS011;55274;43.060;25.618;2023-06-24T07:23:12;6.80;;;4.53;;
68353;SDS011;55274;43.060;25.618;2023-06-24T07:25:38;8.35;;;5.05;;
68353;SDS011;55274;43.060;25.618;2023-06-24T07:28:04;6.72;;;4.85;;
68353;SDS011;55274;43.060;25.618;2023-06-24T07:30:29;6.90;;;4.95;;
68353;SDS011;55274;43.060;25.618;2023-06-24T07:32:55;6.68;;;5.03;;
68353;SDS011;55274;43.060;25.618;2023-06-24T07:35:21;6.38;;;4.63;;
68353;SDS011;55274;43.060;25.618;2023-06-24T07:37:47;5.75;;;4.85;;
68353;SDS011;55274;43.060;25.618;2023-06-24T07:40:13;9.48;;;5.05;;
68353;SDS011;55274;43.060;25.618;2023-06-24T07:42:40;5.30;;;4.50;;
68353;SDS011;55274;43.060;25.618;2023-06-24T07:45:06;6.32;;;5.20;;
68353;SDS011;55274;43.060;25.618;2023-06-24T07:47:32;6.00;;;4.85;;
68353;SDS011;55274;43.060;25.618;2023-06-24T07:49:58;4.88;;;4.38;;
68353;SDS011;55274;43.060;25.618;2023-06-24T07:52:24;6.13;;;4.63;;
68353;SDS011;55274;43.060;25.618;2023-06-24T07:54:50;7.35;;;5.22;;
68353;SDS011;55274;43.060;25.618;2023-06-24T07:57:15;6.65;;;4.80;;
68353;SDS011;55274;43.060;25.618;2023-06-24T07:59:42;5.05;;;4.55;;
68353;SDS011;55274;43.060;25.618;2023-06-24T08:02:08;6.20;;;4.95;;
68353;SDS011;55274;43.060;25.618;2023-06-24T08:04:34;6.30;;;4.90;;
68353;SDS011;55274;43.060;25.618;2023-06-24T08:06:59;6.57;;;4.97;;
68353;SDS011;55274;43.060;25.618;2023-06-24T08:09:25;9.50;;;4.78;;
68353;SDS011;55274;43.060;25.618;2023-06-24T08:11:51;5.78;;;4.68;;
68353;SDS011;55274;43.060;25.618;2023-06-24T08:14:17;5.55;;;4.88;;
68353;SDS011;55274;43.060;25.618;2023-06-24T08:16:42;8.75;;;5.00;;
68353;SDS011;55274;43.060;25.618;2023-06-24T08:19:08;7.65;;;5.30;;
68353;SDS011;55274;43.060;25.618;2023-06-24T08:21:34;6.43;;;4.72;;
68353;SDS011;55274;43.060;25.618;2023-06-24T08:24:00;6.35;;;4.90;;
68353;SDS011;55274;43.060;25.618;2023-06-24T08:26:25;5.53;;;4.65;;
68353;SDS011;55274;43.060;25.618;2023-06-24T08:28:51;6.05;;;4.85;;
68353;SDS011;55274;43.060;25.618;2023-06-24T08:31:17;7.68;;;5.57;;
68353;SDS011;55274;43.060;25.618;2023-06-24T08:33:43;12.25;;;5.50;;
68353;SDS011;55274;43.060;25.618;2023-06-24T08:36:10;5.82;;;4.53;;
68353;SDS011;55274;43.060;25.618;2023-06-24T08:38:36;7.00;;;4.65;;
68353;SDS011;55274;43.060;25.618;2023-06-24T08:41:02;6.88;;;4.65;;
68353;SDS011;55274;43.060;25.618;2023-06-24T08:43:28;9.63;;;4.72;;
68353;SDS011;55274;43.060;25.618;2023-06-24T08:45:54;8.57;;;4.50;;
68353;SDS011;55274;43.060;25.618;2023-06-24T08:48:20;11.20;;;4.72;;
68353;SDS011;55274;43.060;25.618;2023-06-24T08:50:48;13.93;;;4.90;;
68353;SDS011;55274;43.060;25.618;2023-06-24T08:53:18;7.93;;;4.78;;
68353;SDS011;55274;43.060;25.618;2023-06-24T08:55:45;11.73;;;4.72;;
68353;SDS011;55274;43.060;25.618;2023-06-24T08:58:12;6.43;;;4.70;;
68353;SDS011;55274;43.060;25.618;2023-06-24T09:00:39;7.07;;;4.90;;
68353;SDS011;55274;43.060;25.618;2023-06-24T09:03:06;8.07;;;4.60;;
68353;SDS011;55274;43.060;25.618;2023-06-24T09:05:32;6.60;;;4.88;;
68353;SDS011;55274;43.060;25.618;2023-06-24T09:07:58;6.93;;;4.90;;
68353;SDS011;55274;43.060;25.618;2023-06-24T09:10:33;5.75;;;4.80;;
68353;SDS011;55274;43.060;25.618;2023-06-24T09:13:00;5.85;;;4.47;;
68353;SDS011;55274;43.060;25.618;2023-06-24T09:15:30;6.88;;;4.65;;
68353;SDS011;55274;43.060;25.618;2023-06-24T09:18:00;5.32;;;4.75;;
68353;SDS011;55274;43.060;25.618;2023-06-24T09:20:27;5.63;;;4.18;;
68353;SDS011;55274;43.060;25.618;2023-06-24T09:22:59;7.68;;;5.20;;
68353;SDS011;55274;43.060;25.618;2023-06-24T09:25:26;9.27;;;5.20;;
68353;SDS011;55274;43.060;25.618;2023-06-24T09:27:52;10.82;;;5.63;;
68353;SDS011;55274;43.060;25.618;2023-06-24T09:32:48;5.40;;;4.45;;
68353;SDS011;55274;43.060;25.618;2023-06-24T09:35:14;5.63;;;4.35;;
68353;SDS011;55274;43.060;25.618;2023-06-24T09:37:49;8.63;;;4.68;;
68353;SDS011;55274;43.060;25.618;2023-06-24T09:40:20;5.93;;;4.70;;
68353;SDS011;55274;43.060;25.618;2023-06-24T09:42:56;8.70;;;4.60;;
68353;SDS011;55274;43.060;25.618;2023-06-24T09:45:23;8.80;;;4.68;;
68353;SDS011;55274;43.060;25.618;2023-06-24T09:47:50;5.15;;;4.65;;
68353;SDS011;55274;43.060;25.618;2023-06-24T09:50:16;8.68;;;5.57;;
68353;SDS011;55274;43.060;25.618;2023-06-24T09:52:43;5.75;;;4.85;;
68353;SDS011;55274;43.060;25.618;2023-06-24T09:55:10;4.90;;;4.40;;
68353;SDS011;55274;43.060;25.618;2023-06-24T09:57:38;13.50;;;4.82;;
68353;SDS011;55274;43.060;25.618;2023-06-24T10:00:16;6.72;;;4.40;;
68353;SDS011;55274;43.060;25.618;2023-06-24T10:02:44;5.43;;;4.25;;
68353;SDS011;55274;43.060;25.618;2023-06-24T10:05:12;5.32;;;4.50;;
68353;SDS011;55274;43.060;25.618;2023-06-24T10:07:39;5.88;;;4.38;;
68353;SDS011;55274;43.060;25.618;2023-06-24T10:10:06;16.58;;;4.72;;
68353;SDS011;55274;43.060;25.618;2023-06-24T10:12:33;8.63;;;4.97;;
68353;SDS011;55274;43.060;25.618;2023-06-24T10:15:03;6.70;;;4.63;;
68353;SDS011;55274;43.060;25.618;2023-06-24T10:17:30;6.75;;;4.65;;
68353;SDS011;55274;43.060;25.618;2023-06-24T10:19:56;19.00;;;4.82;;
68353;SDS011;55274;43.060;25.618;2023-06-24T10:22:22;6.53;;;4.63;;
68353;SDS011;55274;43.060;25.618;2023-06-24T10:24:50;13.77;;;5.00;;
68353;SDS011;55274;43.060;25.618;2023-06-24T10:27:22;19.67;;;6.43;;
68353;SDS011;55274;43.060;25.618;2023-06-24T10:29:49;11.32;;;5.28;;
68353;SDS011;55274;43.060;25.618;2023-06-24T10:32:21;8.02;;;5.45;;
68353;SDS011;55274;43.060;25.618;2023-06-24T10:34:57;11.02;;;5.20;;
68353;SDS011;55274;43.060;25.618;2023-06-24T10:37:24;7.25;;;5.07;;
68353;SDS011;55274;43.060;25.618;2023-06-24T10:39:59;8.23;;;5.03;;
68353;SDS011;55274;43.060;25.618;2023-06-24T10:44:58;7.32;;;5.13;;
68353;SDS011;55274;43.060;25.618;2023-06-24T10:47:39;8.93;;;5.15;;
68353;SDS011;55274;43.060;25.618;2023-06-24T10:50:13;16.27;;;5.53;;
68353;SDS011;55274;43.060;25.618;2023-06-24T10:52:41;9.93;;;5.18;;
68353;SDS011;55274;43.060;25.618;2023-06-24T10:55:09;5.38;;;4.70;;
68353;SDS011;55274;43.060;25.618;2023-06-24T10:57:35;7.13;;;5.13;;
68353;SDS011;55274;43.060;25.618;2023-06-24T11:00:02;7.45;;;5.22;;
68353;SDS011;55274;43.060;25.618;2023-06-24T11:02:28;6.03;;;4.95;;
68353;SDS011;55274;43.060;25.618;2023-06-24T11:04:58;4.82;;;4.30;;
68353;SDS011;55274;43.060;25.618;2023-06-24T11:07:26;11.50;;;5.00;;
68353;SDS011;55274;43.060;25.618;2023-06-24T11:09:59;15.90;;;5.00;;
68353;SDS011;55274;43.060;25.618;2023-06-24T11:12:31;8.80;;;5.18;;
68353;SDS011;55274;43.060;25.618;2023-06-24T11:15:01;6.57;;;4.43;;
68353;SDS011;55274;43.060;25.618;2023-06-24T11:17:32;4.75;;;4.20;;
68353;SDS011;55274;43.060;25.618;2023-06-24T11:19:59;6.78;;;4.32;;
68353;SDS011;55274;43.060;25.618;2023-06-24T11:22:26;6.22;;;4.47;;
68353;SDS011;55274;43.060;25.618;2023-06-24T11:24:52;12.85;;;4.85;;
68353;SDS011;55274;43.060;25.618;2023-06-24T11:27:26;9.07;;;4.90;;
68353;SDS011;55274;43.060;25.618;2023-06-24T11:29:53;6.65;;;4.47;;
68353;SDS011;55274;43.060;25.618;2023-06-24T11:32:20;5.20;;;4.45;;
68353;SDS011;55274;43.060;25.618;2023-06-24T11:34:46;6.15;;;5.03;;
68353;SDS011;55274;43.060;25.618;2023-06-24T11:37:13;10.88;;;4.45;;
68353;SDS011;55274;43.060;25.618;2023-06-24T11:39:40;32.97;;;5.75;;
68353;SDS011;55274;43.060;25.618;2023-06-24T11:42:07;19.08;;;4.95;;
68353;SDS011;55274;43.060;25.618;2023-06-24T11:44:33;7.47;;;4.53;;
68353;SDS011;55274;43.060;25.618;2023-06-24T11:47:05;9.32;;;4.70;;
68353;SDS011;55274;43.060;25.618;2023-06-24T11:49:32;16.00;;;4.82;;
68353;SDS011;55274;43.060;25.618;2023-06-24T11:51:57;6.55;;;4.45;;
68353;SDS011;55274;43.060;25.618;2023-06-24T11:54:23;12.52;;;5.03;;
68353;SDS011;55274;43.060;25.618;2023-06-24T11:56:52;11.98;;;4.75;;
68353;SDS011;55274;43.060;25.618;2023-06-24T12:01:45;11.02;;;4.40;;
68353;SDS011;55274;43.060;25.618;2023-06-24T12:04:32;9.52;;;4.80;;
68353;SDS011;55274;43.060;25.618;2023-06-24T12:07:02;4.97;;;3.70;;
68353;SDS011;55274;43.060;25.618;2023-06-24T12:09:28;43.67;;;5.97;;
68353;SDS011;55274;43.060;25.618;2023-06-24T12:11:54;11.73;;;4.57;;
68353;SDS011;55274;43.060;25.618;2023-06-24T12:14:20;9.98;;;4.72;;
68353;SDS011;55274;43.060;25.618;2023-06-24T12:16:46;13.02;;;4.85;;
68353;SDS011;55274;43.060;25.618;2023-06-24T12:19:12;15.10;;;4.45;;
68353;SDS011;55274;43.060;25.618;2023-06-24T12:21:37;7.15;;;4.47;;
68353;SDS011;55274;43.060;25.618;2023-06-24T12:24:04;10.98;;;5.05;;
68353;SDS011;55274;43.060;25.618;2023-06-24T12:26:30;10.52;;;4.65;;
68353;SDS011;55274;43.060;25.618;2023-06-24T12:28:56;9.68;;;3.83;;
68353;SDS011;55274;43.060;25.618;2023-06-24T12:31:23;10.10;;;4.00;;
68353;SDS011;55274;43.060;25.618;2023-06-24T12:33:50;10.40;;;4.07;;
68353;SDS011;55274;43.060;25.618;2023-06-24T12:36:17;10.52;;;4.00;;
68353;SDS011;55274;43.060;25.618;2023-06-24T12:38:46;16.25;;;4.20;;
68353;SDS011;55274;43.060;25.618;2023-06-24T12:41:12;12.95;;;4.45;;
68353;SDS011;55274;43.060;25.618;2023-06-24T12:43:38;10.40;;;3.92;;
68353;SDS011;55274;43.060;25.618;2023-06-24T12:46:03;6.35;;;3.90;;
68353;SDS011;55274;43.060;25.618;2023-06-24T12:48:29;4.43;;;3.65;;
68353;SDS011;55274;43.060;25.618;2023-06-24T12:50:55;5.18;;;3.70;;
68353;SDS011;55274;43.060;25.618;2023-06-24T12:53:21;9.45;;;3.97;;
68353;SDS011;55274;43.060;25.618;2023-06-24T12:55:47;13.98;;;4.22;;
68353;SDS011;55274;43.060;25.618;2023-06-24T12:58:13;5.95;;;3.78;;
68353;SDS011;55274;43.060;25.618;2023-06-24T13:00:40;5.90;;;3.67;;
68353;SDS011;55274;43.060;25.618;2023-06-24T13:03:06;4.95;;;3.13;;
68353;SDS011;55274;43.060;25.618;2023-06-24T13:05:31;7.88;;;3.15;;
68353;SDS011;55274;43.060;25.618;2023-06-24T13:07:57;10.07;;;3.55;;
68353;SDS011;55274;43.060;25.618;2023-06-24T13:10:23;8.25;;;3.50;;
68353;SDS011;55274;43.060;25.618;2023-06-24T13:12:49;5.35;;;3.58;;
68353;SDS011;55274;43.060;25.618;2023-06-24T13:15:14;5.00;;;3.38;;
68353;SDS011;55274;43.060;25.618;2023-06-24T13:17:40;4.88;;;3.08;;
68353;SDS011;55274;43.060;25.618;2023-06-24T13:20:07;4.15;;;3.40;;
68353;SDS011;55274;43.060;25.618;2023-06-24T13:22:33;6.63;;;3.33;;
68353;SDS011;55274;43.060;25.618;2023-06-24T13:24:59;4.45;;;3.70;;
68353;SDS011;55274;43.060;25.618;2023-06-24T13:27:25;3.72;;;3.33;;
68353;SDS011;55274;43.060;25.618;2023-06-24T13:29:51;5.85;;;3.40;;
68353;SDS011;55274;43.060;25.618;2023-06-24T13:32:17;6.25;;;3.78;;
68353;SDS011;55274;43.060;25.618;2023-06-24T13:34:43;4.40;;;3.38;;
68353;SDS011;55274;43.060;25.618;2023-06-24T13:37:08;4.32;;;3.55;;
68353;SDS011;55274;43.060;25.618;2023-06-24T13:39:34;9.30;;;3.92;;
68353;SDS011;55274;43.060;25.618;2023-06-24T13:42:00;4.80;;;3.53;;
68353;SDS011;55274;43.060;25.618;2023-06-24T13:44:26;4.35;;;3.95;;
68353;SDS011;55274;43.060;25.618;2023-06-24T13:46:51;5.05;;;3.53;;
68353;SDS011;55274;43.060;25.618;2023-06-24T13:49:18;4.85;;;3.50;;
68353;SDS011;55274;43.060;25.618;2023-06-24T13:51:44;4.85;;;3.75;;
68353;SDS011;55274;43.060;25.618;2023-06-24T13:54:10;12.15;;;4.90;;
68353;SDS011;55274;43.060;25.618;2023-06-24T13:56:36;8.23;;;4.03;;
68353;SDS011;55274;43.060;25.618;2023-06-24T13:59:02;9.00;;;4.15;;
68353;SDS011;55274;43.060;25.618;2023-06-24T14:01:28;7.70;;;4.35;;
68353;SDS011;55274;43.060;25.618;2023-06-24T14:03:54;6.13;;;4.13;;
68353;SDS011;55274;43.060;25.618;2023-06-24T14:06:21;6.32;;;4.15;;
68353;SDS011;55274;43.060;25.618;2023-06-24T14:08:48;16.15;;;4.07;;
68353;SDS011;55274;43.060;25.618;2023-06-24T14:11:14;15.15;;;5.30;;
68353;SDS011;55274;43.060;25.618;2023-06-24T14:13:40;6.68;;;4.35;;
68353;SDS011;55274;43.060;25.618;2023-06-24T14:16:07;13.75;;;4.25;;
68353;SDS011;55274;43.060;25.618;2023-06-24T14:18:33;14.77;;;5.45;;
68353;SDS011;55274;43.060;25.618;2023-06-24T14:21:00;8.65;;;4.30;;
68353;SDS011;55274;43.060;25.618;2023-06-24T14:23:27;6.45;;;4.25;;
68353;SDS011;55274;43.060;25.618;2023-06-24T14:25:53;5.70;;;4.28;;
68353;SDS011;55274;43.060;25.618;2023-06-24T14:28:20;8.43;;;4.35;;
68353;SDS011;55274;43.060;25.618;2023-06-24T14:30:46;6.88;;;4.00;;
68353;SDS011;55274;43.060;25.618;2023-06-24T14:33:12;6.85;;;3.90;;
68353;SDS011;55274;43.060;25.618;2023-06-24T14:35:39;6.07;;;3.97;;
68353;SDS011;55274;43.060;25.618;2023-06-24T14:38:05;6.03;;;4.05;;
68353;SDS011;55274;43.060;25.618;2023-06-24T14:40:31;4.72;;;4.25;;
68353;SDS011;55274;43.060;25.618;2023-06-24T14:42:57;7.53;;;3.90;;
68353;SDS011;55274;43.060;25.618;2023-06-24T14:45:23;5.30;;;3.88;;
68353;SDS011;55274;43.060;25.618;2023-06-24T14:47:49;5.45;;;4.20;;